sensor_id;sensor_type;location;lat;lon;timestamp;pressure;altitude;pressure_sealevel;temperature;humidity
12247;BME280;6186;52.022;4.692;2024-01-15T00:02:00;100552.50;;;3.77;100.00
12247;BME280;6186;52.022;4.692;2024-01-15T00:04:25;100555.13;;;3.74;100.00
12247;BME280;6186;52.022;4.692;2024-01-15T00:06:51;100542.97;;;3.70;100.00
12247;BME280;6186;52.022;4.692;2024-01-15T00:09:16;100541.22;;;3.69;100.00
12247;BME280;6186;52.022;4.692;2024-01-15T00:11:42;100537.78;;;3.64;100.00
12247;BME280;6186;52.022;4.692;2024-01-15T00:14:08;100543.88;;;3.65;100.00
12247;BME280;6186;52.022;4.692;2024-01-15T00:16:34;100538.63;;;3.63;100.00
12247;BME280;6186;52.022;4.692;2024-01-15T00:18:59;100539.53;;;3.62;100.00
12247;BME280;6186;52.022;4.692;2024-01-15T00:21:24;100533.44;;;3.60;100.00
12247;BME280;6186;52.022;4.692;2024-01-15T00:23:49;100531.72;;;3.56;100.00
12247;BME280;6186;52.022;4.692;2024-01-15T00:26:15;100525.66;;;3.54;100.00
12247;BME280;6186;52.022;4.692;2024-01-15T00:28:40;100522.19;;;3.51;100.00
12247;BME280;6186;52.022;4.692;2024-01-15T00:31:05;100525.66;;;3.45;100.00
12247;BME280;6186;52.022;4.692;2024-01-15T00:33:30;100521.34;;;3.43;100.00
12247;BME280;6186;52.022;4.692;2024-01-15T00:35:56;100522.22;;;3.40;100.00
12247;BME280;6186;52.022;4.692;2024-01-15T00:38:21;100517.88;;;3.39;100.00
12247;BME280;6186;52.022;4.692;2024-01-15T00:40:46;100503.13;;;3.35;100.00
12247;BME280;6186;52.022;4.692;2024-01-15T00:43:11;100504.03;;;3.33;100.00
12247;BME280;6186;52.022;4.692;2024-01-15T00:45:37;100498.81;;;3.31;100.00
12247;BME280;6186;52.022;4.692;2024-01-15T00:48:03;100499.69;;;3.30;100.00
12247;BME280;6186;52.022;4.692;2024-01-15T00:50:28;100497.97;;;3.31;100.00
12247;BME280;6186;52.022;4.692;2024-01-15T00:52:54;100503.16;;;3.32;100.00
12247;BME280;6186;52.022;4.692;2024-01-15T00:55:19;100496.22;;;3.34;100.00
12247;BME280;6186;52.022;4.692;2024-01-15T00:57:44;100497.06;;;3.33;100.00
12247;BME280;6186;52.022;4.692;2024-01-15T01:00:10;100499.69;;;3.36;100.00
12247;BME280;6186;52.022;4.692;2024-01-15T01:02:35;100499.69;;;3.36;100.00
12247;BME280;6186;52.022;4.692;2024-01-15T01:05:00;100497.06;;;3.38;100.00
12247;BME280;6186;52.022;4.692;2024-01-15T01:07:25;100499.69;;;3.36;100.00
12247;BME280;6186;52.022;4.692;2024-01-15T01:09:51;100497.97;;;3.37;100.00
12247;BME280;6186;52.022;4.692;2024-01-15T01:12:16;100492.75;;;3.38;100.00
12247;BME280;6186;52.022;4.692;2024-01-15T01:14:41;100490.16;;;3.38;100.00
12247;BME280;6186;52.022;4.692;2024-01-15T01:17:07;100491.00;;;3.39;100.00
12247;BME280;6186;52.022;4.692;2024-01-15T01:19:32;100475.41;;;3.33;100.00
12247;BME280;6186;52.022;4.692;2024-01-15T01:21:57;100477.16;;;3.37;100.00
12247;BME280;6186;52.022;4.692;2024-01-15T01:24:22;100491.00;;;3.37;100.00
12247;BME280;6186;52.022;4.692;2024-01-15T01:26:48;100489.28;;;3.38;100.00
12247;BME280;6186;52.022;4.692;2024-01-15T01:29:13;100486.66;;;3.38;100.00
12247;BME280;6186;52.022;4.692;2024-01-15T01:31:45;100481.47;;;3.38;100.00
12247;BME280;6186;52.022;4.692;2024-01-15T01:34:14;100484.06;;;3.38;100.00
12247;BME280;6186;52.022;4.692;2024-01-15T01:36:39;100481.47;;;3.32;100.00
12247;BME280;6186;52.022;4.692;2024-01-15T01:39:04;100473.66;;;3.39;100.00
12247;BME280;6186;52.022;4.692;2024-01-15T01:41:29;100480.59;;;3.40;100.00
12247;BME280;6186;52.022;4.692;2024-01-15T01:43:55;100470.19;;;3.40;100.00
12247;BME280;6186;52.022;4.692;2024-01-15T01:46:20;100474.53;;;3.40;100.00
12247;BME280;6186;52.022;4.692;2024-01-15T01:48:45;100470.19;;;3.40;100.00
12247;BME280;6186;52.022;4.692;2024-01-15T01:51:11;100475.41;;;3.40;100.00
12247;BME280;6186;52.022;4.692;2024-01-15T01:53:38;100477.13;;;3.40;100.00
12247;BME280;6186;52.022;4.692;2024-01-15T01:56:03;100478.84;;;3.39;100.00
12247;BME280;6186;52.022;4.692;2024-01-15T01:58:30;100475.38;;;3.37;100.00
12247;BME280;6186;52.022;4.692;2024-01-15T02:00:57;100465.00;;;3.34;100.00
12247;BME280;6186;52.022;4.692;2024-01-15T02:03:23;100474.53;;;3.34;100.00
12247;BME280;6186;52.022;4.692;2024-01-15T02:05:48;100473.66;;;3.33;100.00
12247;BME280;6186;52.022;4.692;2024-01-15T02:08:14;100464.13;;;3.32;100.00
12247;BME280;6186;52.022;4.692;2024-01-15T02:10:40;100453.75;;;3.23;100.00
12247;BME280;6186;52.022;4.692;2024-01-15T02:13:05;100463.28;;;3.30;100.00
12247;BME280;6186;52.022;4.692;2024-01-15T02:15:30;100463.28;;;3.30;100.00
12247;BME280;6186;52.022;4.692;2024-01-15T02:18:05;100467.59;;;3.30;100.00
12247;BME280;6186;52.022;4.692;2024-01-15T02:20:31;100461.56;;;3.29;100.00
12247;BME280;6186;52.022;4.692;2024-01-15T02:23:06;100456.34;;;3.29;100.00
12247;BME280;6186;52.022;4.692;2024-01-15T02:25:32;100463.28;;;3.27;100.00
12247;BME280;6186;52.022;4.692;2024-01-15T02:27:58;100455.47;;;3.26;100.00
12247;BME280;6186;52.022;4.692;2024-01-15T02:30:24;100461.53;;;3.26;100.00
12247;BME280;6186;52.022;4.692;2024-01-15T02:32:50;100458.06;;;3.24;100.00
12247;BME280;6186;52.022;4.692;2024-01-15T02:35:15;100458.06;;;3.24;100.00
12247;BME280;6186;52.022;4.692;2024-01-15T02:37:41;100458.09;;;3.23;100.00
12247;BME280;6186;52.022;4.692;2024-01-15T02:40:06;100454.63;;;3.21;100.00
12247;BME280;6186;52.022;4.692;2024-01-15T02:42:32;100455.50;;;3.20;100.00
12247;BME280;6186;52.022;4.692;2024-01-15T02:44:57;100456.38;;;3.17;100.00
12247;BME280;6186;52.022;4.692;2024-01-15T02:47:22;100450.28;;;3.17;100.00
12247;BME280;6186;52.022;4.692;2024-01-15T02:49:47;100443.38;;;3.16;100.00
12247;BME280;6186;52.022;4.692;2024-01-15T02:52:13;100447.69;;;3.15;100.00
12247;BME280;6186;52.022;4.692;2024-01-15T02:54:38;100451.16;;;3.14;100.00
12247;BME280;6186;52.022;4.692;2024-01-15T02:57:03;100448.56;;;3.14;100.00
12247;BME280;6186;52.022;4.692;2024-01-15T02:59:29;100447.72;;;3.14;100.00
12247;BME280;6186;52.022;4.692;2024-01-15T03:01:54;100445.13;;;3.12;100.00
12247;BME280;6186;52.022;4.692;2024-01-15T03:04:19;100448.56;;;3.11;100.00
12247;BME280;6186;52.022;4.692;2024-01-15T03:06:44;100451.16;;;3.14;100.00
12247;BME280;6186;52.022;4.692;2024-01-15T03:09:09;100444.22;;;3.15;100.00
12247;BME280;6186;52.022;4.692;2024-01-15T03:11:38;100445.97;;;3.16;100.00
12247;BME280;6186;52.022;4.692;2024-01-15T03:14:04;100439.03;;;3.16;100.00
12247;BME280;6186;52.022;4.692;2024-01-15T03:16:29;100446.84;;;3.18;100.00
12247;BME280;6186;52.022;4.692;2024-01-15T03:18:54;100447.69;;;3.17;100.00
12247;BME280;6186;52.022;4.692;2024-01-15T03:21:20;100440.75;;;3.17;100.00
12247;BME280;6186;52.022;4.692;2024-01-15T03:23:45;100444.22;;;3.19;100.00
12247;BME280;6186;52.022;4.692;2024-01-15T03:26:10;100435.53;;;3.20;100.00
12247;BME280;6186;52.022;4.692;2024-01-15T03:28:35;100435.56;;;3.23;100.00
12247;BME280;6186;52.022;4.692;2024-01-15T03:31:00;100435.56;;;3.25;100.00
12247;BME280;6186;52.022;4.692;2024-01-15T03:33:26;100426.88;;;3.26;100.00
12247;BME280;6186;52.022;4.692;2024-01-15T03:35:51;100430.34;;;3.29;100.00
12247;BME280;6186;52.022;4.692;2024-01-15T03:38:16;100433.78;;;3.34;100.00
12247;BME280;6186;52.022;4.692;2024-01-15T03:40:41;100436.38;;;3.40;100.00
12247;BME280;6186;52.022;4.692;2024-01-15T03:43:07;100442.44;;;3.45;100.00
12247;BME280;6186;52.022;4.692;2024-01-15T03:45:32;100432.03;;;3.42;100.00
12247;BME280;6186;52.022;4.692;2024-01-15T03:47:57;100442.41;;;3.51;100.00
12247;BME280;6186;52.022;4.692;2024-01-15T03:50:22;100442.44;;;3.50;100.00
12247;BME280;6186;52.022;4.692;2024-01-15T03:52:47;100423.34;;;3.46;100.00
12247;BME280;6186;52.022;4.692;2024-01-15T03:55:13;100430.28;;;3.47;100.00
12247;BME280;6186;52.022;4.692;2024-01-15T03:57:38;100426.81;;;3.45;100.00
12247;BME280;6186;52.022;4.692;2024-01-15T04:00:04;100421.63;;;3.39;100.00
12247;BME280;6186;52.022;4.692;2024-01-15T04:02:29;100423.38;;;3.37;100.00
12247;BME280;6186;52.022;4.692;2024-01-15T04:04:54;100429.47;;;3.35;100.00
12247;BME280;6186;52.022;4.692;2024-01-15T04:07:19;100424.25;;;3.36;100.00
12247;BME280;6186;52.022;4.692;2024-01-15T04:09:45;100431.16;;;3.37;100.00
12247;BME280;6186;52.022;4.692;2024-01-15T04:12:10;100425.13;;;3.38;100.00
12247;BME280;6186;52.022;4.692;2024-01-15T04:14:35;100424.25;;;3.38;100.00
12247;BME280;6186;52.022;4.692;2024-01-15T04:17:00;100419.03;;;3.39;100.00
12247;BME280;6186;52.022;4.692;2024-01-15T04:19:26;100420.78;;;3.40;100.00
12247;BME280;6186;52.022;4.692;2024-01-15T04:21:51;100423.38;;;3.42;100.00
12247;BME280;6186;52.022;4.692;2024-01-15T04:24:16;100410.34;;;3.43;100.00
12247;BME280;6186;52.022;4.692;2024-01-15T04:26:41;100411.22;;;3.45;100.00
12247;BME280;6186;52.022;4.692;2024-01-15T04:29:06;100399.06;;;3.47;100.00
12247;BME280;6186;52.022;4.692;2024-01-15T04:31:32;100394.72;;;3.46;100.00
12247;BME280;6186;52.022;4.692;2024-01-15T04:33:57;100405.13;;;3.46;100.00
12247;BME280;6186;52.022;4.692;2024-01-15T04:36:22;100396.47;;;3.46;100.00
12247;BME280;6186;52.022;4.692;2024-01-15T04:38:47;100392.13;;;3.46;100.00
12247;BME280;6186;52.022;4.692;2024-01-15T04:41:13;100388.69;;;3.44;100.00
12247;BME280;6186;52.022;4.692;2024-01-15T04:43:38;100388.66;;;3.43;100.00
12247;BME280;6186;52.022;4.692;2024-01-15T04:46:05;100380.03;;;3.42;100.00
12247;BME280;6186;52.022;4.692;2024-01-15T04:48:31;100382.63;;;3.42;100.00
12247;BME280;6186;52.022;4.692;2024-01-15T04:50:56;100374.81;;;3.39;100.00
12247;BME280;6186;52.022;4.692;2024-01-15T04:53:21;100377.44;;;3.36;100.00
12247;BME280;6186;52.022;4.692;2024-01-15T04:55:46;100373.13;;;3.32;100.00
12247;BME280;6186;52.022;4.692;2024-01-15T04:58:12;100382.69;;;3.27;100.00
12247;BME280;6186;52.022;4.692;2024-01-15T05:00:37;100381.78;;;3.24;100.00
12247;BME280;6186;52.022;4.692;2024-01-15T05:03:02;100377.47;;;3.18;100.00
12247;BME280;6186;52.022;4.692;2024-01-15T05:05:28;100378.34;;;3.14;100.00
12247;BME280;6186;52.022;4.692;2024-01-15T05:07:53;100369.69;;;3.11;100.00
12247;BME280;6186;52.022;4.692;2024-01-15T05:10:18;100371.44;;;3.07;100.00
12247;BME280;6186;52.022;4.692;2024-01-15T05:12:43;100370.59;;;3.05;100.00
12247;BME280;6186;52.022;4.692;2024-01-15T05:15:09;100351.56;;;2.94;100.00
12247;BME280;6186;52.022;4.692;2024-01-15T05:17:34;100364.53;;;3.02;100.00
12247;BME280;6186;52.022;4.692;2024-01-15T05:19:59;100377.53;;;3.00;100.00
12247;BME280;6186;52.022;4.692;2024-01-15T05:22:24;100375.78;;;2.99;100.00
12247;BME280;6186;52.022;4.692;2024-01-15T05:24:49;100369.75;;;2.97;100.00
12247;BME280;6186;52.022;4.692;2024-01-15T05:27:15;100371.50;;;2.95;100.00
12247;BME280;6186;52.022;4.692;2024-01-15T05:29:40;100378.41;;;2.95;100.00
12247;BME280;6186;52.022;4.692;2024-01-15T05:32:05;100377.53;;;2.96;100.00
12247;BME280;6186;52.022;4.692;2024-01-15T05:34:30;100374.09;;;2.95;100.00
12247;BME280;6186;52.022;4.692;2024-01-15T05:36:56;100379.28;;;2.94;100.00
12247;BME280;6186;52.022;4.692;2024-01-15T05:39:21;100372.38;;;2.91;100.00
12247;BME280;6186;52.022;4.692;2024-01-15T05:41:46;100367.19;;;2.90;100.00
12247;BME280;6186;52.022;4.692;2024-01-15T05:44:11;100374.09;;;2.86;100.00
12247;BME280;6186;52.022;4.692;2024-01-15T05:46:36;100364.56;;;2.85;100.00
12247;BME280;6186;52.022;4.692;2024-01-15T05:49:02;100364.59;;;2.83;100.00
12247;BME280;6186;52.022;4.692;2024-01-15T05:51:27;100368.03;;;2.81;100.00
12247;BME280;6186;52.022;4.692;2024-01-15T05:53:52;100366.31;;;2.80;100.00
12247;BME280;6186;52.022;4.692;2024-01-15T05:56:17;100362.84;;;2.81;100.00
12247;BME280;6186;52.022;4.692;2024-01-15T05:58:43;100355.91;;;2.77;100.00
12247;BME280;6186;52.022;4.692;2024-01-15T06:01:08;100359.38;;;2.73;100.00
12247;BME280;6186;52.022;4.692;2024-01-15T06:03:33;100355.06;;;2.66;100.00
12247;BME280;6186;52.022;4.692;2024-01-15T06:05:58;100356.78;;;2.65;100.00
12247;BME280;6186;52.022;4.692;2024-01-15T06:08:23;100347.28;;;2.66;100.00
12247;BME280;6186;52.022;4.692;2024-01-15T06:10:49;100345.56;;;2.62;100.00
12247;BME280;6186;52.022;4.692;2024-01-15T06:13:14;100346.41;;;2.64;100.00
12247;BME280;6186;52.022;4.692;2024-01-15T06:15:39;100343.81;;;2.67;100.00
12247;BME280;6186;52.022;4.692;2024-01-15T06:18:04;100341.22;;;2.65;100.00
12247;BME280;6186;52.022;4.692;2024-01-15T06:20:30;100353.34;;;2.65;100.00
12247;BME280;6186;52.022;4.692;2024-01-15T06:22:55;100368.94;;;2.65;100.00
12247;BME280;6186;52.022;4.692;2024-01-15T06:25:20;100355.94;;;2.66;100.00
12247;BME280;6186;52.022;4.692;2024-01-15T06:27:45;100363.75;;;2.65;100.00
12247;BME280;6186;52.022;4.692;2024-01-15T06:30:11;100368.06;;;2.66;100.00
12247;BME280;6186;52.022;4.692;2024-01-15T06:32:36;100368.91;;;2.69;100.00
12247;BME280;6186;52.022;4.692;2024-01-15T06:35:02;100378.44;;;2.75;100.00
12247;BME280;6186;52.022;4.692;2024-01-15T06:37:27;100384.50;;;2.81;100.00
12247;BME280;6186;52.022;4.692;2024-01-15T06:39:52;100376.69;;;2.86;100.00
12247;BME280;6186;52.022;4.692;2024-01-15T06:42:18;100368.03;;;2.87;100.00
12247;BME280;6186;52.022;4.692;2024-01-15T06:44:43;100357.63;;;2.82;100.00
12247;BME280;6186;52.022;4.692;2024-01-15T06:47:08;100334.28;;;2.78;100.00
12247;BME280;6186;52.022;4.692;2024-01-15T06:49:34;100334.28;;;2.69;100.00
12247;BME280;6186;52.022;4.692;2024-01-15T06:51:59;100345.53;;;2.71;100.00
12247;BME280;6186;52.022;4.692;2024-01-15T06:54:24;100344.66;;;2.69;100.00
12247;BME280;6186;52.022;4.692;2024-01-15T06:56:49;100349.91;;;2.63;100.00
12247;BME280;6186;52.022;4.692;2024-01-15T06:59:14;100365.47;;;2.67;100.00
12247;BME280;6186;52.022;4.692;2024-01-15T07:01:40;100378.44;;;2.69;100.00
12247;BME280;6186;52.022;4.692;2024-01-15T07:04:05;100387.97;;;2.71;100.00
12247;BME280;6186;52.022;4.692;2024-01-15T07:06:30;100390.56;;;2.73;100.00
12247;BME280;6186;52.022;4.692;2024-01-15T07:08:55;100400.97;;;2.73;100.00
12247;BME280;6186;52.022;4.692;2024-01-15T07:11:21;100403.56;;;2.68;100.00
12247;BME280;6186;52.022;4.692;2024-01-15T07:13:46;100392.31;;;2.63;100.00
12247;BME280;6186;52.022;4.692;2024-01-15T07:16:11;100385.38;;;2.59;100.00
12247;BME280;6186;52.022;4.692;2024-01-15T07:18:36;100383.66;;;2.57;100.00
12247;BME280;6186;52.022;4.692;2024-01-15T07:21:02;100367.22;;;2.53;100.00
12247;BME280;6186;52.022;4.692;2024-01-15T07:23:27;100368.94;;;2.51;100.00
12247;BME280;6186;52.022;4.692;2024-01-15T07:25:52;100368.94;;;2.48;100.00
12247;BME280;6186;52.022;4.692;2024-01-15T07:28:17;100371.53;;;2.47;100.00
12247;BME280;6186;52.022;4.692;2024-01-15T07:30:42;100360.28;;;2.46;100.00
12247;BME280;6186;52.022;4.692;2024-01-15T07:33:08;100355.97;;;2.45;100.00
12247;BME280;6186;52.022;4.692;2024-01-15T07:35:33;100348.19;;;2.36;100.00
12247;BME280;6186;52.022;4.692;2024-01-15T07:37:58;100353.34;;;2.41;100.00
12247;BME280;6186;52.022;4.692;2024-01-15T07:40:23;100360.28;;;2.42;100.00
12247;BME280;6186;52.022;4.692;2024-01-15T07:42:49;100359.44;;;2.46;100.00
12247;BME280;6186;52.022;4.692;2024-01-15T07:45:14;100358.53;;;2.48;100.00
12247;BME280;6186;52.022;4.692;2024-01-15T07:47:39;100355.09;;;2.49;100.00
12247;BME280;6186;52.022;4.692;2024-01-15T07:50:05;100362.88;;;2.51;100.00
12247;BME280;6186;52.022;4.692;2024-01-15T07:52:30;100374.16;;;2.51;100.00
12247;BME280;6186;52.022;4.692;2024-01-15T07:54:55;100372.41;;;2.53;100.00
12247;BME280;6186;52.022;4.692;2024-01-15T07:57:21;100374.13;;;2.54;100.00
12247;BME280;6186;52.022;4.692;2024-01-15T07:59:46;100378.47;;;2.57;100.00
12247;BME280;6186;52.022;4.692;2024-01-15T08:02:11;100368.94;;;2.57;100.00
12247;BME280;6186;52.022;4.692;2024-01-15T08:04:39;100368.06;;;2.52;100.00
12247;BME280;6186;52.022;4.692;2024-01-15T08:07:05;100370.66;;;2.58;100.00
12247;BME280;6186;52.022;4.692;2024-01-15T08:09:30;100369.81;;;2.62;100.00
12247;BME280;6186;52.022;4.692;2024-01-15T08:11:55;100373.28;;;2.64;100.00
12247;BME280;6186;52.022;4.692;2024-01-15T08:14:20;100388.84;;;2.67;100.00
12247;BME280;6186;52.022;4.692;2024-01-15T08:16:46;100384.50;;;2.69;100.00
12247;BME280;6186;52.022;4.692;2024-01-15T08:19:11;100373.25;;;2.61;100.00
12247;BME280;6186;52.022;4.692;2024-01-15T08:21:36;100382.78;;;2.67;100.00
12247;BME280;6186;52.022;4.692;2024-01-15T08:24:02;100370.66;;;2.64;100.00
12247;BME280;6186;52.022;4.692;2024-01-15T08:26:30;100370.69;;;2.63;100.00
12247;BME280;6186;52.022;4.692;2024-01-15T08:28:56;100370.66;;;2.66;100.00
12247;BME280;6186;52.022;4.692;2024-01-15T08:31:21;100369.78;;;2.70;100.00
12247;BME280;6186;52.022;4.692;2024-01-15T08:33:47;100364.59;;;2.76;100.00
12247;BME280;6186;52.022;4.692;2024-01-15T08:36:12;100299.69;;;2.47;100.00
12247;BME280;6186;52.022;4.692;2024-01-15T08:38:37;100369.75;;;3.00;100.00
12247;BME280;6186;52.022;4.692;2024-01-15T08:41:02;100359.31;;;3.11;100.00
12247;BME280;6186;52.022;4.692;2024-01-15T08:43:28;100353.22;;;3.19;100.00
12247;BME280;6186;52.022;4.692;2024-01-15T08:45:53;100354.06;;;3.24;100.00
12247;BME280;6186;52.022;4.692;2024-01-15T08:48:19;100348.00;;;3.27;100.00
12247;BME280;6186;52.022;4.692;2024-01-15T08:50:44;100357.47;;;3.35;100.00
12247;BME280;6186;52.022;4.692;2024-01-15T08:53:09;100366.16;;;3.40;100.00
12247;BME280;6186;52.022;4.692;2024-01-15T08:55:34;100371.31;;;3.49;100.00
12247;BME280;6186;52.022;4.692;2024-01-15T08:58:00;100372.13;;;3.65;100.00
12247;BME280;6186;52.022;4.692;2024-01-15T09:00:25;100377.22;;;3.78;100.00
12247;BME280;6186;52.022;4.692;2024-01-15T09:02:50;100395.41;;;3.84;100.00
12247;BME280;6186;52.022;4.692;2024-01-15T09:05:15;100411.06;;;3.83;100.00
12247;BME280;6186;52.022;4.692;2024-01-15T09:07:41;100407.59;;;3.75;100.00
12247;BME280;6186;52.022;4.692;2024-01-15T09:10:06;100417.19;;;3.65;100.00
12247;BME280;6186;52.022;4.692;2024-01-15T09:12:31;100404.25;;;3.53;100.00
12247;BME280;6186;52.022;4.692;2024-01-15T09:14:57;100399.09;;;3.41;100.00
12247;BME280;6186;52.022;4.692;2024-01-15T09:17:22;100406.94;;;3.29;100.00
12247;BME280;6186;52.022;4.692;2024-01-15T09:19:47;100410.41;;;3.21;100.00
12247;BME280;6186;52.022;4.692;2024-01-15T09:22:13;100402.66;;;3.07;100.00
12247;BME280;6186;52.022;4.692;2024-01-15T09:24:40;100408.72;;;3.02;100.00
12247;BME280;6186;52.022;4.692;2024-01-15T09:27:05;100366.31;;;2.80;100.00
12247;BME280;6186;52.022;4.692;2024-01-15T09:29:31;100401.81;;;2.95;100.00
12247;BME280;6186;52.022;4.692;2024-01-15T09:31:56;100382.78;;;2.83;100.00
12247;BME280;6186;52.022;4.692;2024-01-15T09:34:21;100398.34;;;2.91;100.00
12247;BME280;6186;52.022;4.692;2024-01-15T09:36:46;100398.34;;;2.94;100.00
12247;BME280;6186;52.022;4.692;2024-01-15T09:39:11;100394.00;;;2.98;100.00
12247;BME280;6186;52.022;4.692;2024-01-15T09:41:37;100404.41;;;3.02;100.00
12247;BME280;6186;52.022;4.692;2024-01-15T09:44:06;100406.97;;;3.07;100.00
12247;BME280;6186;52.022;4.692;2024-01-15T09:46:32;100400.03;;;3.12;100.00
12247;BME280;6186;52.022;4.692;2024-01-15T09:48:58;100395.69;;;3.20;100.00
12247;BME280;6186;52.022;4.692;2024-01-15T09:51:24;100388.69;;;3.35;100.00
12247;BME280;6186;52.022;4.692;2024-01-15T09:53:50;100383.38;;;3.62;100.00
12247;BME280;6186;52.022;4.692;2024-01-15T09:56:15;100387.63;;;3.81;100.00
12247;BME280;6186;52.022;4.692;2024-01-15T09:58:41;100394.50;;;3.95;100.00
12247;BME280;6186;52.022;4.692;2024-01-15T10:01:06;100391.78;;;4.13;100.00
12247;BME280;6186;52.022;4.692;2024-01-15T10:03:31;100388.13;;;4.42;100.00
12247;BME280;6186;52.022;4.692;2024-01-15T10:05:58;100388.75;;;4.70;100.00
12247;BME280;6186;52.022;4.692;2024-01-15T10:08:24;100393.94;;;4.70;100.00
12247;BME280;6186;52.022;4.692;2024-01-15T10:10:49;100400.19;;;4.54;100.00
12247;BME280;6186;52.022;4.692;2024-01-15T10:13:14;100403.75;;;4.39;100.00
12247;BME280;6186;52.022;4.692;2024-01-15T10:15:40;100410.78;;;4.27;100.00
12247;BME280;6186;52.022;4.692;2024-01-15T10:18:05;100415.16;;;4.23;100.00
12247;BME280;6186;52.022;4.692;2024-01-15T10:20:32;100412.47;;;4.34;100.00
12247;BME280;6186;52.022;4.692;2024-01-15T10:22:57;100409.88;;;4.32;100.00
12247;BME280;6186;52.022;4.692;2024-01-15T10:25:22;100416.03;;;4.24;100.00
12247;BME280;6186;52.022;4.692;2024-01-15T10:27:59;100411.75;;;4.11;100.00
12247;BME280;6186;52.022;4.692;2024-01-15T10:30:24;100405.75;;;3.98;100.00
12247;BME280;6186;52.022;4.692;2024-01-15T10:33:03;100414.47;;;3.94;100.00
12247;BME280;6186;52.022;4.692;2024-01-15T10:35:30;100408.44;;;3.83;100.00
12247;BME280;6186;52.022;4.692;2024-01-15T10:37:55;100426.66;;;3.84;100.00
12247;BME280;6186;52.022;4.692;2024-01-15T10:40:20;100434.50;;;3.81;100.00
12247;BME280;6186;52.022;4.692;2024-01-15T10:42:45;100430.19;;;3.74;100.00
12247;BME280;6186;52.022;4.692;2024-01-15T10:45:11;100409.41;;;3.68;100.00
12247;BME280;6186;52.022;4.692;2024-01-15T10:47:36;100409.41;;;3.62;100.00
12247;BME280;6186;52.022;4.692;2024-01-15T10:50:01;100412.88;;;3.64;100.00
12247;BME280;6186;52.022;4.692;2024-01-15T10:52:28;100416.34;;;3.66;100.00
12247;BME280;6186;52.022;4.692;2024-01-15T10:54:53;100418.00;;;3.81;100.00
12247;BME280;6186;52.022;4.692;2024-01-15T10:57:21;100426.28;;;4.45;100.00
12247;BME280;6186;52.022;4.692;2024-01-15T10:59:46;100430.97;;;5.10;100.00
12247;BME280;6186;52.022;4.692;2024-01-15T11:02:13;100427.31;;;5.24;100.00
12247;BME280;6186;52.022;4.692;2024-01-15T11:04:39;100422.19;;;5.15;100.00
12247;BME280;6186;52.022;4.692;2024-01-15T11:07:05;100431.94;;;5.01;100.00
12247;BME280;6186;52.022;4.692;2024-01-15T11:09:30;100425.06;;;4.91;100.00
12247;BME280;6186;52.022;4.692;2024-01-15T11:12:10;100420.81;;;4.78;100.00
12247;BME280;6186;52.022;4.692;2024-01-15T11:14:46;100414.78;;;4.71;100.00
12247;BME280;6186;52.022;4.692;2024-01-15T11:17:12;100421.66;;;4.82;100.00
12247;BME280;6186;52.022;4.692;2024-01-15T11:24:55;100416.56;;;6.79;100.00
12247;BME280;6186;52.022;4.692;2024-01-15T11:27:50;100409.69;;;7.22;100.00
12247;BME280;6186;52.022;4.692;2024-01-15T11:30:15;100418.06;;;7.39;100.00
12247;BME280;6186;52.022;4.692;2024-01-15T11:32:40;100419.59;;;7.49;100.00
12247;BME280;6186;52.022;4.692;2024-01-15T11:35:06;100443.94;;;7.56;100.00
12247;BME280;6186;52.022;4.692;2024-01-15T11:42:45;100455.28;;;5.94;100.00
12247;BME280;6186;52.022;4.692;2024-01-15T11:45:11;100457.50;;;5.52;100.00
12247;BME280;6186;52.022;4.692;2024-01-15T11:48:14;100463.84;;;5.24;100.00
12247;BME280;6186;52.022;4.692;2024-01-15T11:55:51;100451.28;;;4.70;100.00
12247;BME280;6186;52.022;4.692;2024-01-15T11:58:16;100456.59;;;4.56;100.00
12247;BME280;6186;52.022;4.692;2024-01-15T12:00:48;100457.56;;;4.46;100.00
12247;BME280;6186;52.022;4.692;2024-01-15T12:03:13;100465.38;;;4.45;100.00
12247;BME280;6186;52.022;4.692;2024-01-15T12:05:39;100467.13;;;4.46;100.00
12247;BME280;6186;52.022;4.692;2024-01-15T12:08:04;100474.06;;;4.44;100.00
12247;BME280;6186;52.022;4.692;2024-01-15T12:10:30;100450.78;;;4.21;100.00
12247;BME280;6186;52.022;4.692;2024-01-15T12:13:00;100477.66;;;4.29;100.00
12247;BME280;6186;52.022;4.692;2024-01-15T12:15:28;100484.63;;;4.23;100.00
12247;BME280;6186;52.022;4.692;2024-01-15T12:17:55;100488.16;;;4.14;100.00
12247;BME280;6186;52.022;4.692;2024-01-15T12:20:20;100488.94;;;4.31;100.00
12247;BME280;6186;52.022;4.692;2024-01-15T12:22:46;100486.09;;;4.64;100.00
12247;BME280;6186;52.022;4.692;2024-01-15T12:25:11;100481.72;;;5.63;100.00
12247;BME280;6186;52.022;4.692;2024-01-15T12:27:37;100482.31;;;6.53;100.00
12247;BME280;6186;52.022;4.692;2024-01-15T12:30:02;100487.13;;;6.82;100.00
12247;BME280;6186;52.022;4.692;2024-01-15T12:32:29;100485.63;;;6.64;100.00
12247;BME280;6186;52.022;4.692;2024-01-15T12:34:54;100492.34;;;6.24;100.00
12247;BME280;6186;52.022;4.692;2024-01-15T12:37:20;100486.75;;;5.85;100.00
12247;BME280;6186;52.022;4.692;2024-01-15T12:39:46;100485.34;;;5.52;100.00
12247;BME280;6186;52.022;4.692;2024-01-15T12:42:14;100486.50;;;5.24;100.00
12247;BME280;6186;52.022;4.692;2024-01-15T12:44:39;100491.81;;;5.07;100.00
12247;BME280;6186;52.022;4.692;2024-01-15T12:47:05;100497.09;;;5.00;100.00
12247;BME280;6186;52.022;4.692;2024-01-15T12:49:30;100505.00;;;4.94;100.00
12247;BME280;6186;52.022;4.692;2024-01-15T12:51:59;100512.31;;;5.49;100.00
12247;BME280;6186;52.022;4.692;2024-01-15T12:54:25;100511.31;;;6.95;100.00
12247;BME280;6186;52.022;4.692;2024-01-15T12:56:51;100502.09;;;8.17;100.00
12247;BME280;6186;52.022;4.692;2024-01-15T12:59:18;100507.88;;;9.09;100.00
12247;BME280;6186;52.022;4.692;2024-01-15T13:01:44;100497.06;;;9.55;100.00
12247;BME280;6186;52.022;4.692;2024-01-15T13:04:10;100490.81;;;9.91;100.00
12247;BME280;6186;52.022;4.692;2024-01-15T13:06:35;100499.06;;;10.10;100.00
12247;BME280;6186;52.022;4.692;2024-01-15T13:09:01;100499.00;;;10.11;100.00